Time;durP1;ratioP1;P1;durP2;ratioP2;P2;SDS_P1;SDS_P2;PMS_P1;PMS_P2;Temp;Humidity;BMP_temperature;BMP_pressure;BME280_temperature;BME280_humidity;BME280_pressure;Samples;Min_cycle;Max_cycle;Signal;HPM_P1;HPM_P2
2022/07/14 00:00:25;;;;;;;5.65;2.55;;;;;;;;;;6198783;23;20264;-90
2022/07/14 00:03:32;;;;;;;6.50;2.55;;;;;;;;;;6197056;23;20167;-90
2022/07/14 00:06:37;;;;;;;7.57;2.50;;;;;;;;;;6198828;23;20215;-90
2022/07/14 00:09:43;;;;;;;3.45;2.33;;;;;;;;;;6197803;23;20251;-89
2022/07/14 00:12:48;;;;;;;5.60;2.78;;;;;;;;;;6199401;23;20176;-89
2022/07/14 00:15:53;;;;;;;5.20;2.40;;;;;;;;;;6198959;23;20200;-89
2022/07/14 00:18:59;;;;;;;4.78;2.30;;;;;;;;;;6199603;23;20251;-90
2022/07/14 00:22:05;;;;;;;4.13;2.33;;;;;;;;;;6200042;23;20215;-89
2022/07/14 00:25:10;;;;;;;5.85;3.05;;;;;;;;;;6197697;23;20172;-89
2022/07/14 00:28:17;;;;;;;7.30;2.40;;;;;;;;;;6198431;23;20159;-88
2022/07/14 01:44:43;;;;;;;7.55;2.47;;;;;;;;;;6188076;22;20211;-89
2022/07/14 01:47:49;;;;;;;4.82;2.60;;;;;;;;;;6229112;23;20170;-88
2022/07/14 01:50:55;;;;;;;6.45;2.78;;;;;;;;;;6229297;23;20167;-89
2022/07/14 01:54:01;;;;;;;5.50;2.42;;;;;;;;;;6228347;23;20167;-87
2022/07/14 01:57:07;;;;;;;7.50;2.60;;;;;;;;;;6228806;23;20264;-89
2022/07/14 02:00:14;;;;;;;7.05;2.40;;;;;;;;;;6228048;23;20619;-88
2022/07/14 02:03:22;;;;;;;4.57;2.80;;;;;;;;;;6229264;23;20303;-89
2022/07/14 02:06:28;;;;;;;7.28;2.80;;;;;;;;;;6228291;23;20174;-89
2022/07/14 02:12:56;;;;;;;8.15;2.70;;;;;;;;;;6229816;23;20151;-89
2022/07/14 02:16:02;;;;;;;5.68;2.70;;;;;;;;;;6229478;23;20203;-88
2022/07/14 02:19:08;;;;;;;4.65;2.95;;;;;;;;;;6228729;23;20202;-90
2022/07/14 02:22:13;;;;;;;4.20;2.50;;;;;;;;;;6227368;23;20167;-90
2022/07/14 02:25:19;;;;;;;7.32;2.63;;;;;;;;;;6228924;23;20221;-91
2022/07/14 02:28:24;;;;;;;9.35;2.25;;;;;;;;;;6226837;23;20214;-90
2022/07/14 02:31:31;;;;;;;4.78;2.70;;;;;;;;;;6227767;23;20158;-90
2022/07/14 02:34:36;;;;;;;3.75;2.20;;;;;;;;;;6227076;23;20163;-89
2022/07/14 02:37:41;;;;;;;3.95;2.35;;;;;;;;;;6228051;23;20155;-89
2022/07/14 02:40:47;;;;;;;3.38;2.25;;;;;;;;;;6227280;23;20163;-89
2022/07/14 02:43:52;;;;;;;3.72;2.30;;;;;;;;;;6226527;23;20175;-88
2022/07/14 02:47:00;;;;;;;6.25;2.63;;;;;;;;;;6227770;23;20171;-89
2022/07/14 02:50:06;;;;;;;4.68;2.38;;;;;;;;;;6227255;23;20167;-88
2022/07/14 02:53:13;;;;;;;3.75;2.22;;;;;;;;;;6229837;23;20238;-89
2022/07/14 02:56:22;;;;;;;4.07;2.30;;;;;;;;;;6227060;23;20194;-90
2022/07/14 02:59:28;;;;;;;6.25;2.55;;;;;;;;;;6226086;23;20163;-89
2022/07/14 03:02:34;;;;;;;4.25;2.63;;;;;;;;;;6228807;23;20147;-89
2022/07/14 03:05:39;;;;;;;3.50;2.28;;;;;;;;;;6228183;23;20497;-90
2022/07/14 03:08:45;;;;;;;6.55;2.53;;;;;;;;;;6228896;23;20615;-89
2022/07/14 03:11:54;;;;;;;2.65;2.10;;;;;;;;;;6228406;23;20167;-89
2022/07/14 03:15:00;;;;;;;3.60;2.38;;;;;;;;;;6228716;23;20175;-89
2022/07/14 03:18:07;;;;;;;4.60;2.25;;;;;;;;;;6228374;23;20166;-89
2022/07/14 03:21:16;;;;;;;4.82;2.08;;;;;;;;;;6228334;23;20614;-90
2022/07/14 03:24:25;;;;;;;10.52;2.30;;;;;;;;;;6228280;23;20152;-89
2022/07/14 03:27:30;;;;;;;3.75;2.60;;;;;;;;;;6227222;23;20253;-88
2022/07/14 03:30:35;;;;;;;3.08;1.98;;;;;;;;;;6227505;23;20158;-89
2022/07/14 03:33:42;;;;;;;7.95;2.40;;;;;;;;;;6226526;23;20170;-90
2022/07/14 03:36:47;;;;;;;3.58;2.42;;;;;;;;;;6227813;23;20174;-89
2022/07/14 03:39:56;;;;;;;7.20;2.72;;;;;;;;;;6227496;23;20226;-88
2022/07/14 03:43:02;;;;;;;4.18;2.50;;;;;;;;;;6227889;23;20167;-88
2022/07/14 03:46:08;;;;;;;4.30;2.30;;;;;;;;;;6228299;23;20194;-88
2022/07/14 03:49:18;;;;;;;5.10;1.92;;;;;;;;;;6227601;23;20223;-89
2022/07/14 03:52:25;;;;;;;6.38;2.30;;;;;;;;;;6229496;23;20147;-89
2022/07/14 03:55:31;;;;;;;4.22;2.58;;;;;;;;;;6230981;23;20175;-91
2022/07/14 03:58:36;;;;;;;180.57;22.30;;;;;;;;;;6229272;23;20166;-87
2022/07/14 04:05:32;;;;;;;5.47;2.53;;;;;;;;;;6229615;23;20152;-89
2022/07/14 04:08:48;;;;;;;6.20;2.97;;;;;;;;;;6228760;23;20172;-91
2022/07/14 04:11:55;;;;;;;7.03;3.00;;;;;;;;;;6229176;23;20195;-92
2022/07/14 04:15:00;;;;;;;5.93;3.10;;;;;;;;;;6230217;23;20212;-91
2022/07/14 04:18:06;;;;;;;4.65;2.90;;;;;;;;;;6228203;23;20175;-89
2022/07/14 04:21:12;;;;;;;7.20;2.70;;;;;;;;;;6230534;23;20171;-89
2022/07/14 04:24:18;;;;;;;5.55;2.80;;;;;;;;;;6231310;23;20167;-91
2022/07/14 04:27:24;;;;;;;4.47;2.83;;;;;;;;;;6229998;23;20226;-89
2022/07/14 04:30:30;;;;;;;5.45;2.75;;;;;;;;;;6229118;23;20175;-89
2022/07/14 04:33:39;;;;;;;6.03;2.50;;;;;;;;;;6230567;23;20167;-89
2022/07/14 04:36:47;;;;;;;5.07;2.50;;;;;;;;;;6230610;23;20211;-89
2022/07/14 04:39:52;;;;;;;5.43;3.00;;;;;;;;;;6230617;23;20212;-89
2022/07/14 04:43:01;;;;;;;5.82;3.05;;;;;;;;;;6228416;23;20279;-89
2022/07/14 04:46:08;;;;;;;7.68;3.22;;;;;;;;;;6229346;23;20195;-90
2022/07/14 04:52:48;;;;;;;4.97;2.55;;;;;;;;;;6230191;23;20167;-90
2022/07/14 04:56:12;;;;;;;5.47;2.92;;;;;;;;;;6231604;23;20195;-87
2022/07/14 04:59:29;;;;;;;4.70;3.00;;;;;;;;;;6228331;23;20250;-90
2022/07/14 05:02:35;;;;;;;7.38;2.78;;;;;;;;;;6229357;23;20587;-89
2022/07/14 05:05:40;;;;;;;5.82;3.40;;;;;;;;;;6230315;23;20171;-89
2022/07/14 05:08:49;;;;;;;9.68;3.63;;;;;;;;;;6229801;23;20240;-91
2022/07/14 05:11:55;;;;;;;10.55;2.97;;;;;;;;;;6228538;23;20263;-88
2022/07/14 05:15:01;;;;;;;2.97;2.05;;;;;;;;;;6229923;23;20178;-90
2022/07/14 05:18:13;;;;;;;8.98;2.50;;;;;;;;;;6230680;23;20186;-89
2022/07/14 05:21:19;;;;;;;6.75;2.60;;;;;;;;;;6229858;23;20163;-91
2022/07/14 05:24:27;;;;;;;13.82;3.05;;;;;;;;;;6230653;23;20242;-89
2022/07/14 05:27:33;;;;;;;7.82;2.40;;;;;;;;;;6231630;23;20190;-89
2022/07/14 05:30:39;;;;;;;2.70;1.77;;;;;;;;;;6233013;23;20155;-90
2022/07/14 05:33:46;;;;;;;4.18;2.13;;;;;;;;;;6233026;23;20171;-91
2022/07/14 05:36:52;;;;;;;6.30;2.80;;;;;;;;;;6234398;23;20195;-88
2022/07/14 05:39:59;;;;;;;5.35;2.28;;;;;;;;;;6234638;23;20216;-90
2022/07/14 05:43:05;;;;;;;7.55;2.17;;;;;;;;;;6232704;23;20171;-89
2022/07/14 05:46:11;;;;;;;7.65;2.30;;;;;;;;;;6233034;23;20195;-90
2022/07/14 05:49:18;;;;;;;4.57;2.10;;;;;;;;;;6231251;23;20167;-89
2022/07/14 05:52:30;;;;;;;3.47;2.15;;;;;;;;;;6230385;23;20171;-89
2022/07/14 05:55:37;;;;;;;3.13;2.10;;;;;;;;;;6232870;23;20207;-89
2022/07/14 19:37:26;;;;;;;3.90;1.65;;;;;;;;;;6182910;22;20438;-89
2022/07/14 19:40:31;;;;;;;4.18;2.28;;;;;;;;;;6216277;23;20151;-91
2022/07/14 19:43:42;;;;;;;6.38;2.00;;;;;;;;;;6201663;23;20175;-90
2022/07/14 19:46:47;;;;;;;8.75;2.70;;;;;;;;;;6201089;23;20167;-88
2022/07/14 19:50:02;;;;;;;6.18;2.40;;;;;;;;;;6203525;23;20168;-89
2022/07/14 19:53:09;;;;;;;6.32;2.67;;;;;;;;;;6206678;23;20614;-89
2022/07/14 19:56:15;;;;;;;9.27;3.63;;;;;;;;;;6205436;23;20155;-88
2022/07/14 19:59:21;;;;;;;5.57;2.97;;;;;;;;;;6202170;23;20172;-90
2022/07/14 20:02:26;;;;;;;9.85;3.45;;;;;;;;;;6202973;23;20188;-91
2022/07/14 20:05:33;;;;;;;7.80;2.85;;;;;;;;;;6204358;23;20171;-91
2022/07/14 20:08:40;;;;;;;13.63;5.88;;;;;;;;;;6203184;23;20164;-89
2022/07/14 20:11:47;;;;;;;12.70;4.65;;;;;;;;;;6203616;23;20206;-90
2022/07/14 20:14:52;;;;;;;3.65;1.85;;;;;;;;;;6186261;23;20180;-91
2022/07/14 20:17:59;;;;;;;5.47;1.92;;;;;;;;;;6203524;23;20179;-89
2022/07/14 20:21:04;;;;;;;8.50;2.10;;;;;;;;;;6205197;23;20216;-89
2022/07/14 20:24:12;;;;;;;9.48;2.00;;;;;;;;;;6205965;23;20175;-91
2022/07/14 20:34:03;;;;;;;7.18;2.50;;;;;;;;;;6204066;23;20172;-89
2022/07/14 20:37:08;;;;;;;5.80;2.00;;;;;;;;;;6204994;23;20187;-89
2022/07/14 20:40:16;;;;;;;5.32;2.45;;;;;;;;;;6202695;23;20212;-90
2022/07/14 20:43:29;;;;;;;5.35;2.60;;;;;;;;;;6202565;23;20205;-88
2022/07/14 20:49:58;;;;;;;10.68;2.47;;;;;;;;;;6204851;23;20205;-89
2022/07/14 20:53:04;;;;;;;8.88;2.30;;;;;;;;;;6205039;23;20159;-89
2022/07/14 20:56:15;;;;;;;4.47;2.13;;;;;;;;;;6205985;23;20195;-90
2022/07/14 20:59:26;;;;;;;10.90;2.75;;;;;;;;;;6206135;23;20175;-89
2022/07/14 21:02:31;;;;;;;5.20;2.30;;;;;;;;;;6204950;23;20709;-89
2022/07/14 21:05:45;;;;;;;5.53;3.03;;;;;;;;;;6204304;23;20190;-90
2022/07/14 21:08:51;;;;;;;8.52;2.47;;;;;;;;;;6203498;23;20167;-88
2022/07/14 21:12:00;;;;;;;8.68;2.47;;;;;;;;;;6205252;23;20171;-89
2022/07/14 21:15:07;;;;;;;11.32;3.13;;;;;;;;;;6205425;23;20221;-89
2022/07/14 21:18:14;;;;;;;7.93;2.80;;;;;;;;;;6206214;23;20199;-89
2022/07/14 21:21:20;;;;;;;4.35;2.75;;;;;;;;;;6204675;23;20211;-90
2022/07/14 21:24:27;;;;;;;7.65;2.70;;;;;;;;;;6201712;23;20168;-90
2022/07/14 21:27:35;;;;;;;10.85;2.80;;;;;;;;;;6220623;23;20164;-88
2022/07/14 21:30:40;;;;;;;8.98;3.10;;;;;;;;;;6204874;23;20175;-89
2022/07/14 21:33:45;;;;;;;5.68;2.75;;;;;;;;;;6198244;23;20164;-89
2022/07/14 21:36:50;;;;;;;4.53;2.20;;;;;;;;;;6201469;23;20171;-90
2022/07/14 21:43:16;;;;;;;6.22;2.50;;;;;;;;;;6198953;23;20192;-90
2022/07/14 21:46:22;;;;;;;9.52;2.33;;;;;;;;;;6199929;23;20237;-88
2022/07/14 21:49:28;;;;;;;7.53;2.78;;;;;;;;;;6199341;23;20171;-89
2022/07/14 21:52:33;;;;;;;6.93;3.17;;;;;;;;;;6199631;23;20195;-89
2022/07/14 21:55:39;;;;;;;5.25;2.63;;;;;;;;;;6199779;23;20168;-90
2022/07/14 21:58:48;;;;;;;3.63;2.28;;;;;;;;;;6200359;23;20179;-91
2022/07/14 22:02:04;;;;;;;3.55;2.38;;;;;;;;;;6200454;23;20168;-89
2022/07/14 22:05:10;;;;;;;3.20;2.17;;;;;;;;;;6200424;23;20168;-91
2022/07/14 22:08:17;;;;;;;3.75;2.20;;;;;;;;;;6199297;23;20215;-91
2022/07/14 22:11:23;;;;;;;6.05;2.38;;;;;;;;;;6199442;23;20239;-90
2022/07/14 22:14:30;;;;;;;4.05;2.33;;;;;;;;;;6199521;23;20516;-89
2022/07/14 22:17:36;;;;;;;6.13;2.35;;;;;;;;;;6198300;23;20211;-90
2022/07/14 22:20:42;;;;;;;4.05;2.22;;;;;;;;;;6199103;23;20172;-91
2022/07/14 22:23:47;;;;;;;3.70;2.10;;;;;;;;;;6199206;23;20171;-91
2022/07/14 22:30:17;;;;;;;5.10;2.15;;;;;;;;;;6199277;23;20256;-90
2022/07/14 22:33:22;;;;;;;3.03;2.20;;;;;;;;;;6199095;23;20155;-89
2022/07/14 22:36:28;;;;;;;3.60;2.25;;;;;;;;;;6199795;23;20171;-91
2022/07/14 22:39:33;;;;;;;12.00;2.38;;;;;;;;;;6198372;23;20678;-91
2022/07/14 22:42:39;;;;;;;7.50;2.22;;;;;;;;;;6199439;23;20191;-88
2022/07/14 22:45:46;;;;;;;5.25;2.22;;;;;;;;;;6199749;23;20183;-88
2022/07/14 22:48:54;;;;;;;4.40;2.40;;;;;;;;;;6199437;23;20211;-89
2022/07/14 22:52:00;;;;;;;4.00;2.30;;;;;;;;;;6199267;23;20248;-92
2022/07/14 22:55:06;;;;;;;5.20;2.50;;;;;;;;;;6199224;23;20176;-89
2022/07/14 22:58:11;;;;;;;6.47;2.33;;;;;;;;;;6199797;23;20239;-89
2022/07/14 23:01:18;;;;;;;5.07;2.70;;;;;;;;;;6200789;23;20172;-90
2022/07/14 23:04:23;;;;;;;8.48;4.20;;;;;;;;;;6199783;23;20176;-89
2022/07/14 23:07:31;;;;;;;5.85;2.28;;;;;;;;;;6200645;23;20179;-89
2022/07/14 23:10:36;;;;;;;6.47;2.95;;;;;;;;;;6201019;23;20187;-91
2022/07/14 23:13:40;;;;;;;8.98;2.70;;;;;;;;;;6198940;23;20295;-88
2022/07/14 23:16:47;;;;;;;9.10;3.10;;;;;;;;;;6198717;23;20240;-89
2022/07/14 23:19:53;;;;;;;5.57;3.28;;;;;;;;;;6217462;23;20172;-87
2022/07/14 23:22:59;;;;;;;6.88;2.90;;;;;;;;;;6200396;23;20161;-89
2022/07/14 23:26:05;;;;;;;4.28;2.78;;;;;;;;;;6199491;23;20172;-89
2022/07/14 23:29:11;;;;;;;5.63;2.90;;;;;;;;;;6200418;23;20507;-89
2022/07/14 23:32:17;;;;;;;7.75;2.90;;;;;;;;;;6199191;23;20171;-89
2022/07/14 23:35:23;;;;;;;6.18;2.30;;;;;;;;;;6199616;23;20163;-90
2022/07/14 23:38:28;;;;;;;6.82;2.95;;;;;;;;;;6200739;23;20211;-90
2022/07/14 23:41:36;;;;;;;9.35;3.13;;;;;;;;;;6198807;23;20171;-90
2022/07/14 23:44:42;;;;;;;6.57;3.17;;;;;;;;;;6198866;23;20171;-89
2022/07/14 23:47:49;;;;;;;6.45;3.13;;;;;;;;;;6180705;23;20167;-90
2022/07/14 23:50:56;;;;;;;4.78;2.75;;;;;;;;;;6199352;23;20172;-89
2022/07/14 23:54:03;;;;;;;11.93;3.60;;;;;;;;;;6197662;23;20184;-88
2022/07/14 23:57:09;;;;;;;12.32;3.38;;;;;;;;;;6198528;23;20670;-89
